sensor_id;sensor_type;location;lat;lon;timestamp;temperature;humidity
8459;DHT22;4266;48.816;9.154;2023-08-21T00:00:16;24.00;95.70
8459;DHT22;4266;48.816;9.154;2023-08-21T00:02:41;24.00;95.70
8459;DHT22;4266;48.816;9.154;2023-08-21T00:05:08;23.90;96.10
8459;DHT22;4266;48.816;9.154;2023-08-21T00:07:33;23.90;96.10
8459;DHT22;4266;48.816;9.154;2023-08-21T00:09:59;23.90;96.10
8459;DHT22;4266;48.816;9.154;2023-08-21T00:12:25;23.90;96.40
8459;DHT22;4266;48.816;9.154;2023-08-21T00:14:51;23.90;96.90
8459;DHT22;4266;48.816;9.154;2023-08-21T00:17:17;23.90;96.90
8459;DHT22;4266;48.816;9.154;2023-08-21T00:19:43;23.90;96.80
8459;DHT22;4266;48.816;9.154;2023-08-21T00:22:09;23.90;96.80
8459;DHT22;4266;48.816;9.154;2023-08-21T00:24:35;23.90;96.80
8459;DHT22;4266;48.816;9.154;2023-08-21T00:27:01;23.90;96.80
8459;DHT22;4266;48.816;9.154;2023-08-21T00:29:27;23.90;96.80
8459;DHT22;4266;48.816;9.154;2023-08-21T00:31:52;23.80;97.00
8459;DHT22;4266;48.816;9.154;2023-08-21T00:34:18;23.80;96.90
8459;DHT22;4266;48.816;9.154;2023-08-21T00:36:44;23.80;97.10
8459;DHT22;4266;48.816;9.154;2023-08-21T00:39:09;23.80;96.80
8459;DHT22;4266;48.816;9.154;2023-08-21T00:41:36;23.80;96.60
8459;DHT22;4266;48.816;9.154;2023-08-21T00:44:02;23.80;96.60
8459;DHT22;4266;48.816;9.154;2023-08-21T00:46:27;23.80;96.50
8459;DHT22;4266;48.816;9.154;2023-08-21T00:48:53;23.80;96.30
8459;DHT22;4266;48.816;9.154;2023-08-21T00:51:19;23.80;96.40
8459;DHT22;4266;48.816;9.154;2023-08-21T00:53:45;23.80;96.00
8459;DHT22;4266;48.816;9.154;2023-08-21T00:56:11;23.80;96.00
8459;DHT22;4266;48.816;9.154;2023-08-21T00:58:36;23.80;96.00
8459;DHT22;4266;48.816;9.154;2023-08-21T01:01:03;23.80;96.10
8459;DHT22;4266;48.816;9.154;2023-08-21T01:03:29;23.80;96.00
8459;DHT22;4266;48.816;9.154;2023-08-21T01:05:55;23.70;95.90
8459;DHT22;4266;48.816;9.154;2023-08-21T01:08:23;23.70;96.20
8459;DHT22;4266;48.816;9.154;2023-08-21T01:11:00;23.50;97.30
8459;DHT22;4266;48.816;9.154;2023-08-21T01:14:42;23.50;97.30
8459;DHT22;4266;48.816;9.154;2023-08-21T01:16:13;23.30;97.90
8459;DHT22;4266;48.816;9.154;2023-08-21T01:18:39;23.30;97.90
8459;DHT22;4266;48.816;9.154;2023-08-21T01:21:04;23.40;98.20
8459;DHT22;4266;48.816;9.154;2023-08-21T01:23:33;23.30;98.30
8459;DHT22;4266;48.816;9.154;2023-08-21T01:25:58;23.20;98.40
8459;DHT22;4266;48.816;9.154;2023-08-21T01:28:24;23.10;98.90
8459;DHT22;4266;48.816;9.154;2023-08-21T01:30:50;23.10;98.90
8459;DHT22;4266;48.816;9.154;2023-08-21T01:33:16;23.10;99.30
8459;DHT22;4266;48.816;9.154;2023-08-21T01:35:42;23.00;99.70
8459;DHT22;4266;48.816;9.154;2023-08-21T01:38:09;22.90;99.90
8459;DHT22;4266;48.816;9.154;2023-08-21T01:40:35;22.90;99.90
8459;DHT22;4266;48.816;9.154;2023-08-21T01:43:00;22.90;99.90
8459;DHT22;4266;48.816;9.154;2023-08-21T01:45:26;22.90;99.90
8459;DHT22;4266;48.816;9.154;2023-08-21T01:47:52;22.80;99.90
8459;DHT22;4266;48.816;9.154;2023-08-21T01:50:17;22.80;99.90
8459;DHT22;4266;48.816;9.154;2023-08-21T01:52:43;22.70;99.90
8459;DHT22;4266;48.816;9.154;2023-08-21T01:55:09;22.70;99.90
8459;DHT22;4266;48.816;9.154;2023-08-21T01:57:35;22.70;99.90
8459;DHT22;4266;48.816;9.154;2023-08-21T02:00:02;22.70;99.90
8459;DHT22;4266;48.816;9.154;2023-08-21T02:02:27;22.70;99.90
8459;DHT22;4266;48.816;9.154;2023-08-21T02:04:53;22.70;99.90
8459;DHT22;4266;48.816;9.154;2023-08-21T02:07:19;22.50;99.90
8459;DHT22;4266;48.816;9.154;2023-08-21T02:09:45;22.50;99.90
8459;DHT22;4266;48.816;9.154;2023-08-21T02:12:10;22.40;99.90
8459;DHT22;4266;48.816;9.154;2023-08-21T02:14:36;22.40;99.90
8459;DHT22;4266;48.816;9.154;2023-08-21T02:17:02;22.40;99.90
8459;DHT22;4266;48.816;9.154;2023-08-21T02:19:28;22.40;99.90
8459;DHT22;4266;48.816;9.154;2023-08-21T02:21:54;22.30;99.90
8459;DHT22;4266;48.816;9.154;2023-08-21T02:24:21;22.20;99.90
8459;DHT22;4266;48.816;9.154;2023-08-21T02:26:47;22.20;99.90
8459;DHT22;4266;48.816;9.154;2023-08-21T02:29:12;22.20;99.90
8459;DHT22;4266;48.816;9.154;2023-08-21T02:31:39;22.20;99.90
8459;DHT22;4266;48.816;9.154;2023-08-21T02:34:05;22.20;99.90
8459;DHT22;4266;48.816;9.154;2023-08-21T02:36:30;22.20;99.90
8459;DHT22;4266;48.816;9.154;2023-08-21T02:38:56;22.20;99.90
8459;DHT22;4266;48.816;9.154;2023-08-21T02:41:21;22.10;99.90
8459;DHT22;4266;48.816;9.154;2023-08-21T02:43:47;22.10;99.90
8459;DHT22;4266;48.816;9.154;2023-08-21T02:46:13;22.00;99.90
8459;DHT22;4266;48.816;9.154;2023-08-21T02:48:38;22.00;99.90
8459;DHT22;4266;48.816;9.154;2023-08-21T02:51:05;21.90;99.90
8459;DHT22;4266;48.816;9.154;2023-08-21T02:53:30;21.90;99.90
8459;DHT22;4266;48.816;9.154;2023-08-21T02:55:57;21.90;99.90
8459;DHT22;4266;48.816;9.154;2023-08-21T02:58:22;21.90;99.90
8459;DHT22;4266;48.816;9.154;2023-08-21T03:00:48;21.90;99.90
8459;DHT22;4266;48.816;9.154;2023-08-21T03:03:14;21.90;99.90
8459;DHT22;4266;48.816;9.154;2023-08-21T03:05:39;21.90;99.90
8459;DHT22;4266;48.816;9.154;2023-08-21T03:08:06;21.80;99.90
8459;DHT22;4266;48.816;9.154;2023-08-21T03:10:32;21.80;99.90
8459;DHT22;4266;48.816;9.154;2023-08-21T03:12:58;21.70;99.90
8459;DHT22;4266;48.816;9.154;2023-08-21T03:15:24;21.70;99.90
8459;DHT22;4266;48.816;9.154;2023-08-21T03:17:50;21.70;99.90
8459;DHT22;4266;48.816;9.154;2023-08-21T03:20:16;21.70;99.90
8459;DHT22;4266;48.816;9.154;2023-08-21T03:22:42;21.60;99.90
8459;DHT22;4266;48.816;9.154;2023-08-21T03:25:08;21.60;99.90
8459;DHT22;4266;48.816;9.154;2023-08-21T03:27:34;21.50;99.90
8459;DHT22;4266;48.816;9.154;2023-08-21T03:29:59;21.50;99.90
8459;DHT22;4266;48.816;9.154;2023-08-21T03:32:25;21.40;99.90
8459;DHT22;4266;48.816;9.154;2023-08-21T03:34:51;21.40;99.90
8459;DHT22;4266;48.816;9.154;2023-08-21T03:37:17;21.40;99.90
8459;DHT22;4266;48.816;9.154;2023-08-21T03:39:43;21.40;99.90
8459;DHT22;4266;48.816;9.154;2023-08-21T03:42:08;21.30;99.90
8459;DHT22;4266;48.816;9.154;2023-08-21T03:44:34;21.30;99.90
8459;DHT22;4266;48.816;9.154;2023-08-21T03:47:01;21.30;99.90
8459;DHT22;4266;48.816;9.154;2023-08-21T03:49:27;21.20;99.90
8459;DHT22;4266;48.816;9.154;2023-08-21T03:51:53;21.20;99.90
8459;DHT22;4266;48.816;9.154;2023-08-21T03:54:19;21.20;99.90
8459;DHT22;4266;48.816;9.154;2023-08-21T03:56:45;21.20;99.90
8459;DHT22;4266;48.816;9.154;2023-08-21T03:59:11;21.10;99.90
8459;DHT22;4266;48.816;9.154;2023-08-21T04:01:37;21.10;99.90
8459;DHT22;4266;48.816;9.154;2023-08-21T04:04:03;21.20;99.90
8459;DHT22;4266;48.816;9.154;2023-08-21T04:06:29;21.20;99.90
8459;DHT22;4266;48.816;9.154;2023-08-21T04:08:54;21.20;99.90
8459;DHT22;4266;48.816;9.154;2023-08-21T04:11:20;21.20;99.90
8459;DHT22;4266;48.816;9.154;2023-08-21T04:13:45;21.20;99.90
8459;DHT22;4266;48.816;9.154;2023-08-21T04:16:12;21.10;99.90
8459;DHT22;4266;48.816;9.154;2023-08-21T04:18:38;21.10;99.90
8459;DHT22;4266;48.816;9.154;2023-08-21T04:21:04;21.10;99.90
8459;DHT22;4266;48.816;9.154;2023-08-21T04:23:30;21.10;99.90
8459;DHT22;4266;48.816;9.154;2023-08-21T04:26:01;21.10;99.90
8459;DHT22;4266;48.816;9.154;2023-08-21T04:28:26;21.00;99.90
8459;DHT22;4266;48.816;9.154;2023-08-21T04:30:52;21.00;99.90
8459;DHT22;4266;48.816;9.154;2023-08-21T04:33:17;21.00;99.90
8459;DHT22;4266;48.816;9.154;2023-08-21T04:35:43;21.10;99.90
8459;DHT22;4266;48.816;9.154;2023-08-21T04:38:09;21.10;99.90
8459;DHT22;4266;48.816;9.154;2023-08-21T04:40:36;21.10;99.90
8459;DHT22;4266;48.816;9.154;2023-08-21T04:43:02;21.10;99.90
8459;DHT22;4266;48.816;9.154;2023-08-21T04:45:27;21.10;99.90
8459;DHT22;4266;48.816;9.154;2023-08-21T04:47:54;21.20;99.90
8459;DHT22;4266;48.816;9.154;2023-08-21T04:50:20;21.10;99.90
8459;DHT22;4266;48.816;9.154;2023-08-21T04:52:45;21.20;99.90
8459;DHT22;4266;48.816;9.154;2023-08-21T04:55:11;21.20;99.90
8459;DHT22;4266;48.816;9.154;2023-08-21T04:57:36;21.20;99.90
8459;DHT22;4266;48.816;9.154;2023-08-21T05:00:02;21.30;99.90
8459;DHT22;4266;48.816;9.154;2023-08-21T05:02:28;21.40;99.90
8459;DHT22;4266;48.816;9.154;2023-08-21T05:04:55;21.60;99.90
8459;DHT22;4266;48.816;9.154;2023-08-21T05:07:20;21.60;99.90
8459;DHT22;4266;48.816;9.154;2023-08-21T05:09:47;21.80;99.90
8459;DHT22;4266;48.816;9.154;2023-08-21T05:12:12;21.80;99.90
8459;DHT22;4266;48.816;9.154;2023-08-21T05:14:39;22.00;99.90
8459;DHT22;4266;48.816;9.154;2023-08-21T05:17:05;22.00;99.90
8459;DHT22;4266;48.816;9.154;2023-08-21T05:19:30;22.10;99.90
8459;DHT22;4266;48.816;9.154;2023-08-21T05:21:56;22.40;99.90
8459;DHT22;4266;48.816;9.154;2023-08-21T05:24:22;22.60;99.90
8459;DHT22;4266;48.816;9.154;2023-08-21T05:26:47;22.70;99.90
8459;DHT22;4266;48.816;9.154;2023-08-21T05:29:13;22.80;99.90
8459;DHT22;4266;48.816;9.154;2023-08-21T05:31:39;23.10;99.90
8459;DHT22;4266;48.816;9.154;2023-08-21T05:34:04;23.30;99.90
8459;DHT22;4266;48.816;9.154;2023-08-21T05:36:31;23.60;99.30
8459;DHT22;4266;48.816;9.154;2023-08-21T05:38:56;23.60;99.30
8459;DHT22;4266;48.816;9.154;2023-08-21T05:41:22;23.80;99.00
8459;DHT22;4266;48.816;9.154;2023-08-21T05:43:48;24.20;98.40
8459;DHT22;4266;48.816;9.154;2023-08-21T05:46:15;24.50;98.00
8459;DHT22;4266;48.816;9.154;2023-08-21T05:48:40;24.50;98.00
8459;DHT22;4266;48.816;9.154;2023-08-21T05:51:06;24.80;97.60
8459;DHT22;4266;48.816;9.154;2023-08-21T05:53:32;25.10;96.80
8459;DHT22;4266;48.816;9.154;2023-08-21T05:55:57;25.40;96.60
8459;DHT22;4266;48.816;9.154;2023-08-21T05:58:23;26.00;96.00
8459;DHT22;4266;48.816;9.154;2023-08-21T06:00:49;26.70;95.60
8459;DHT22;4266;48.816;9.154;2023-08-21T06:03:15;27.00;94.60
8459;DHT22;4266;48.816;9.154;2023-08-21T06:05:40;27.10;94.20
8459;DHT22;4266;48.816;9.154;2023-08-21T06:08:06;27.20;93.60
8459;DHT22;4266;48.816;9.154;2023-08-21T06:10:32;28.10;93.20
8459;DHT22;4266;48.816;9.154;2023-08-21T06:12:57;28.40;91.70
8459;DHT22;4266;48.816;9.154;2023-08-21T06:15:23;28.50;91.40
8459;DHT22;4266;48.816;9.154;2023-08-21T06:17:49;28.40;91.00
8459;DHT22;4266;48.816;9.154;2023-08-21T06:20:14;28.70;90.70
8459;DHT22;4266;48.816;9.154;2023-08-21T06:22:40;29.00;90.50
8459;DHT22;4266;48.816;9.154;2023-08-21T06:25:09;28.90;88.50
8459;DHT22;4266;48.816;9.154;2023-08-21T06:27:33;28.80;88.10
8459;DHT22;4266;48.816;9.154;2023-08-21T06:29:58;28.60;87.40
8459;DHT22;4266;48.816;9.154;2023-08-21T06:32:24;28.90;87.70
8459;DHT22;4266;48.816;9.154;2023-08-21T06:34:51;28.90;87.20
8459;DHT22;4266;48.816;9.154;2023-08-21T06:37:17;28.90;87.20
8459;DHT22;4266;48.816;9.154;2023-08-21T06:39:42;29.30;86.50
8459;DHT22;4266;48.816;9.154;2023-08-21T06:42:08;29.50;84.60
8459;DHT22;4266;48.816;9.154;2023-08-21T06:44:34;29.60;84.20
8459;DHT22;4266;48.816;9.154;2023-08-21T06:47:00;30.00;83.00
8459;DHT22;4266;48.816;9.154;2023-08-21T06:49:26;30.20;83.60
8459;DHT22;4266;48.816;9.154;2023-08-21T06:51:52;30.10;83.10
8459;DHT22;4266;48.816;9.154;2023-08-21T06:54:18;30.30;81.20
8459;DHT22;4266;48.816;9.154;2023-08-21T06:56:44;30.30;81.20
8459;DHT22;4266;48.816;9.154;2023-08-21T06:59:09;30.30;81.20
8459;DHT22;4266;48.816;9.154;2023-08-21T07:01:36;30.50;81.10
8459;DHT22;4266;48.816;9.154;2023-08-21T07:04:02;31.00;81.70
8459;DHT22;4266;48.816;9.154;2023-08-21T07:06:29;30.90;81.50
8459;DHT22;4266;48.816;9.154;2023-08-21T07:08:54;31.10;80.00
8459;DHT22;4266;48.816;9.154;2023-08-21T07:11:19;31.40;81.00
8459;DHT22;4266;48.816;9.154;2023-08-21T07:13:45;31.70;80.40
8459;DHT22;4266;48.816;9.154;2023-08-21T07:16:11;32.10;79.10
8459;DHT22;4266;48.816;9.154;2023-08-21T07:18:37;32.20;77.80
8459;DHT22;4266;48.816;9.154;2023-08-21T07:21:03;31.60;76.10
8459;DHT22;4266;48.816;9.154;2023-08-21T07:23:29;31.60;76.10
8459;DHT22;4266;48.816;9.154;2023-08-21T07:25:55;31.90;77.70
8459;DHT22;4266;48.816;9.154;2023-08-21T07:28:21;31.90;77.60
8459;DHT22;4266;48.816;9.154;2023-08-21T07:30:46;32.20;77.30
8459;DHT22;4266;48.816;9.154;2023-08-21T07:33:13;32.20;74.80
8459;DHT22;4266;48.816;9.154;2023-08-21T07:35:39;32.00;74.60
8459;DHT22;4266;48.816;9.154;2023-08-21T07:38:05;32.00;74.70
8459;DHT22;4266;48.816;9.154;2023-08-21T07:40:31;32.30;74.40
8459;DHT22;4266;48.816;9.154;2023-08-21T07:42:58;33.00;75.10
8459;DHT22;4266;48.816;9.154;2023-08-21T07:45:23;32.90;75.00
8459;DHT22;4266;48.816;9.154;2023-08-21T07:47:49;32.90;73.90
8459;DHT22;4266;48.816;9.154;2023-08-21T07:50:14;32.60;73.10
8459;DHT22;4266;48.816;9.154;2023-08-21T07:52:40;33.00;74.10
8459;DHT22;4266;48.816;9.154;2023-08-21T07:55:07;33.10;74.50
8459;DHT22;4266;48.816;9.154;2023-08-21T07:57:33;33.00;72.40
8459;DHT22;4266;48.816;9.154;2023-08-21T07:59:58;33.00;73.50
8459;DHT22;4266;48.816;9.154;2023-08-21T08:02:24;33.20;73.40
8459;DHT22;4266;48.816;9.154;2023-08-21T08:04:50;33.50;72.90
8459;DHT22;4266;48.816;9.154;2023-08-21T08:07:15;33.90;72.90
8459;DHT22;4266;48.816;9.154;2023-08-21T08:09:41;33.60;71.80
8459;DHT22;4266;48.816;9.154;2023-08-21T08:12:07;33.80;70.40
8459;DHT22;4266;48.816;9.154;2023-08-21T08:14:34;33.80;70.60
8459;DHT22;4266;48.816;9.154;2023-08-21T08:16:59;33.80;70.50
8459;DHT22;4266;48.816;9.154;2023-08-21T08:19:25;34.00;71.80
8459;DHT22;4266;48.816;9.154;2023-08-21T08:21:50;34.00;71.00
8459;DHT22;4266;48.816;9.154;2023-08-21T08:24:16;34.20;70.50
8459;DHT22;4266;48.816;9.154;2023-08-21T08:26:42;34.00;69.30
8459;DHT22;4266;48.816;9.154;2023-08-21T08:29:07;33.80;70.60
8459;DHT22;4266;48.816;9.154;2023-08-21T08:31:33;34.30;71.10
8459;DHT22;4266;48.816;9.154;2023-08-21T08:33:59;34.70;70.70
8459;DHT22;4266;48.816;9.154;2023-08-21T08:36:24;34.50;68.70
8459;DHT22;4266;48.816;9.154;2023-08-21T08:38:50;34.70;68.90
8459;DHT22;4266;48.816;9.154;2023-08-21T08:41:38;34.60;70.60
8459;DHT22;4266;48.816;9.154;2023-08-21T08:43:59;35.00;70.80
8459;DHT22;4266;48.816;9.154;2023-08-21T08:46:25;34.80;69.20
8459;DHT22;4266;48.816;9.154;2023-08-21T08:48:51;34.80;69.40
8459;DHT22;4266;48.816;9.154;2023-08-21T08:51:17;35.00;69.10
8459;DHT22;4266;48.816;9.154;2023-08-21T08:53:43;35.00;69.10
8459;DHT22;4266;48.816;9.154;2023-08-21T08:56:08;34.80;68.00
8459;DHT22;4266;48.816;9.154;2023-08-21T08:58:34;34.70;66.60
8459;DHT22;4266;48.816;9.154;2023-08-21T09:01:00;35.10;68.00
8459;DHT22;4266;48.816;9.154;2023-08-21T09:03:25;34.70;66.50
8459;DHT22;4266;48.816;9.154;2023-08-21T09:05:51;34.90;67.90
8459;DHT22;4266;48.816;9.154;2023-08-21T09:08:17;35.20;67.00
8459;DHT22;4266;48.816;9.154;2023-08-21T09:10:43;35.10;65.70
8459;DHT22;4266;48.816;9.154;2023-08-21T09:13:18;35.10;65.70
8459;DHT22;4266;48.816;9.154;2023-08-21T09:15:43;35.10;64.90
8459;DHT22;4266;48.816;9.154;2023-08-21T09:18:10;35.30;66.00
8459;DHT22;4266;48.816;9.154;2023-08-21T09:20:36;35.30;65.30
8459;DHT22;4266;48.816;9.154;2023-08-21T09:23:01;35.20;64.60
8459;DHT22;4266;48.816;9.154;2023-08-21T09:25:27;35.60;64.70
8459;DHT22;4266;48.816;9.154;2023-08-21T09:27:53;35.80;63.50
8459;DHT22;4266;48.816;9.154;2023-08-21T09:30:19;35.20;62.30
8459;DHT22;4266;48.816;9.154;2023-08-21T09:32:52;35.70;64.00
8459;DHT22;4266;48.816;9.154;2023-08-21T09:35:23;36.20;64.10
8459;DHT22;4266;48.816;9.154;2023-08-21T09:37:49;35.70;61.50
8459;DHT22;4266;48.816;9.154;2023-08-21T09:40:15;35.70;63.70
8459;DHT22;4266;48.816;9.154;2023-08-21T09:42:41;35.70;63.70
8459;DHT22;4266;48.816;9.154;2023-08-21T09:45:07;36.10;62.90
8459;DHT22;4266;48.816;9.154;2023-08-21T09:47:33;35.70;60.60
8459;DHT22;4266;48.816;9.154;2023-08-21T09:49:59;35.80;60.90
8459;DHT22;4266;48.816;9.154;2023-08-21T09:52:24;36.30;61.70
8459;DHT22;4266;48.816;9.154;2023-08-21T09:54:51;36.00;61.90
8459;DHT22;4266;48.816;9.154;2023-08-21T09:57:16;36.00;61.90
8459;DHT22;4266;48.816;9.154;2023-08-21T09:59:42;35.90;62.20
8459;DHT22;4266;48.816;9.154;2023-08-21T10:02:08;35.60;61.80
8459;DHT22;4266;48.816;9.154;2023-08-21T10:04:33;35.70;62.70
8459;DHT22;4266;48.816;9.154;2023-08-21T10:06:59;35.80;62.70
8459;DHT22;4266;48.816;9.154;2023-08-21T10:09:25;35.80;61.80
8459;DHT22;4266;48.816;9.154;2023-08-21T10:11:52;35.80;60.30
8459;DHT22;4266;48.816;9.154;2023-08-21T10:14:17;35.80;60.30
8459;DHT22;4266;48.816;9.154;2023-08-21T10:16:42;36.00;59.00
8459;DHT22;4266;48.816;9.154;2023-08-21T10:19:12;35.40;61.00
8459;DHT22;4266;48.816;9.154;2023-08-21T10:21:35;35.40;61.00
8459;DHT22;4266;48.816;9.154;2023-08-21T10:24:00;35.60;59.10
8459;DHT22;4266;48.816;9.154;2023-08-21T10:26:26;35.60;60.40
8459;DHT22;4266;48.816;9.154;2023-08-21T10:29:00;36.10;60.30
8459;DHT22;4266;48.816;9.154;2023-08-21T10:31:29;35.50;60.10
8459;DHT22;4266;48.816;9.154;2023-08-21T10:33:55;36.10;60.40
8459;DHT22;4266;48.816;9.154;2023-08-21T10:39:24;36.20;59.20
8459;DHT22;4266;48.816;9.154;2023-08-21T10:42:11;35.40;58.60
8459;DHT22;4266;48.816;9.154;2023-08-21T10:44:56;35.40;58.90
8459;DHT22;4266;48.816;9.154;2023-08-21T10:47:22;35.30;58.20
8459;DHT22;4266;48.816;9.154;2023-08-21T10:49:49;35.10;58.50
8459;DHT22;4266;48.816;9.154;2023-08-21T10:52:13;35.40;58.90
8459;DHT22;4266;48.816;9.154;2023-08-21T10:54:42;35.40;58.10
8459;DHT22;4266;48.816;9.154;2023-08-21T10:57:07;35.60;58.00
8459;DHT22;4266;48.816;9.154;2023-08-21T10:59:33;36.00;60.10
8459;DHT22;4266;48.816;9.154;2023-08-21T11:01:59;35.80;58.70
8459;DHT22;4266;48.816;9.154;2023-08-21T11:04:24;35.60;58.00
8459;DHT22;4266;48.816;9.154;2023-08-21T11:06:51;35.30;59.20
8459;DHT22;4266;48.816;9.154;2023-08-21T11:09:16;35.30;59.20
8459;DHT22;4266;48.816;9.154;2023-08-21T11:11:42;35.20;58.30
8459;DHT22;4266;48.816;9.154;2023-08-21T11:14:07;35.20;57.80
8459;DHT22;4266;48.816;9.154;2023-08-21T11:16:33;35.50;59.00
8459;DHT22;4266;48.816;9.154;2023-08-21T11:19:02;35.50;57.40
8459;DHT22;4266;48.816;9.154;2023-08-21T11:21:24;35.20;57.50
8459;DHT22;4266;48.816;9.154;2023-08-21T11:23:50;34.90;58.10
8459;DHT22;4266;48.816;9.154;2023-08-21T11:26:16;34.60;59.00
8459;DHT22;4266;48.816;9.154;2023-08-21T11:28:41;35.40;59.50
8459;DHT22;4266;48.816;9.154;2023-08-21T11:31:07;35.40;59.30
8459;DHT22;4266;48.816;9.154;2023-08-21T11:33:33;35.50;59.20
8459;DHT22;4266;48.816;9.154;2023-08-21T11:35:59;35.40;59.10
8459;DHT22;4266;48.816;9.154;2023-08-21T11:38:25;35.60;58.90
8459;DHT22;4266;48.816;9.154;2023-08-21T11:40:54;35.40;59.40
8459;DHT22;4266;48.816;9.154;2023-08-21T11:43:19;35.30;59.30
8459;DHT22;4266;48.816;9.154;2023-08-21T11:45:45;35.50;58.70
8459;DHT22;4266;48.816;9.154;2023-08-21T11:48:10;35.40;58.50
8459;DHT22;4266;48.816;9.154;2023-08-21T11:50:36;35.30;58.10
8459;DHT22;4266;48.816;9.154;2023-08-21T11:53:03;34.90;57.20
8459;DHT22;4266;48.816;9.154;2023-08-21T11:55:29;34.90;57.20
8459;DHT22;4266;48.816;9.154;2023-08-21T11:57:54;35.20;57.90
8459;DHT22;4266;48.816;9.154;2023-08-21T12:00:26;35.50;57.90
8459;DHT22;4266;48.816;9.154;2023-08-21T12:02:53;35.40;57.80
8459;DHT22;4266;48.816;9.154;2023-08-21T12:05:18;35.60;58.00
8459;DHT22;4266;48.816;9.154;2023-08-21T12:07:44;35.60;57.40
8459;DHT22;4266;48.816;9.154;2023-08-21T12:10:10;35.30;56.80
8459;DHT22;4266;48.816;9.154;2023-08-21T12:12:35;35.10;56.90
8459;DHT22;4266;48.816;9.154;2023-08-21T12:15:02;35.70;58.50
8459;DHT22;4266;48.816;9.154;2023-08-21T12:17:28;35.70;58.40
8459;DHT22;4266;48.816;9.154;2023-08-21T12:19:54;35.90;58.10
8459;DHT22;4266;48.816;9.154;2023-08-21T12:22:19;35.90;58.20
8459;DHT22;4266;48.816;9.154;2023-08-21T12:24:46;35.20;58.00
8459;DHT22;4266;48.816;9.154;2023-08-21T12:27:11;35.10;57.90
8459;DHT22;4266;48.816;9.154;2023-08-21T12:29:37;34.80;58.70
8459;DHT22;4266;48.816;9.154;2023-08-21T12:32:03;34.80;58.60
8459;DHT22;4266;48.816;9.154;2023-08-21T12:34:29;34.50;58.50
8459;DHT22;4266;48.816;9.154;2023-08-21T12:36:54;34.30;58.00
8459;DHT22;4266;48.816;9.154;2023-08-21T12:39:21;34.10;57.90
8459;DHT22;4266;48.816;9.154;2023-08-21T12:41:46;34.10;57.90
8459;DHT22;4266;48.816;9.154;2023-08-21T12:44:12;33.90;58.40
8459;DHT22;4266;48.816;9.154;2023-08-21T12:46:38;33.40;58.90
8459;DHT22;4266;48.816;9.154;2023-08-21T12:49:04;33.30;58.90
8459;DHT22;4266;48.816;9.154;2023-08-21T12:51:30;34.00;58.90
8459;DHT22;4266;48.816;9.154;2023-08-21T12:53:56;34.00;58.80
8459;DHT22;4266;48.816;9.154;2023-08-21T12:56:22;34.10;58.60
8459;DHT22;4266;48.816;9.154;2023-08-21T12:58:48;34.50;58.50
8459;DHT22;4266;48.816;9.154;2023-08-21T13:01:13;35.20;57.80
8459;DHT22;4266;48.816;9.154;2023-08-21T13:03:39;35.60;58.10
8459;DHT22;4266;48.816;9.154;2023-08-21T13:06:05;36.10;57.80
8459;DHT22;4266;48.816;9.154;2023-08-21T13:08:30;36.60;57.90
8459;DHT22;4266;48.816;9.154;2023-08-21T13:10:57;35.30;57.90
8459;DHT22;4266;48.816;9.154;2023-08-21T13:13:23;35.30;57.90
8459;DHT22;4266;48.816;9.154;2023-08-21T13:15:49;34.10;57.20
8459;DHT22;4266;48.816;9.154;2023-08-21T13:18:14;34.30;57.90
8459;DHT22;4266;48.816;9.154;2023-08-21T13:20:41;34.20;58.30
8459;DHT22;4266;48.816;9.154;2023-08-21T13:23:07;34.00;58.40
8459;DHT22;4266;48.816;9.154;2023-08-21T13:25:33;34.00;58.40
8459;DHT22;4266;48.816;9.154;2023-08-21T13:28:00;34.10;58.60
8459;DHT22;4266;48.816;9.154;2023-08-21T13:30:23;33.90;58.50
8459;DHT22;4266;48.816;9.154;2023-08-21T13:32:49;33.60;58.20
8459;DHT22;4266;48.816;9.154;2023-08-21T13:35:16;33.60;58.00
8459;DHT22;4266;48.816;9.154;2023-08-21T13:37:42;33.50;59.00
8459;DHT22;4266;48.816;9.154;2023-08-21T13:40:08;33.50;59.00
8459;DHT22;4266;48.816;9.154;2023-08-21T13:42:37;33.30;58.70
8459;DHT22;4266;48.816;9.154;2023-08-21T13:45:03;33.30;58.70
8459;DHT22;4266;48.816;9.154;2023-08-21T13:47:29;33.20;58.50
8459;DHT22;4266;48.816;9.154;2023-08-21T13:49:55;33.20;58.60
8459;DHT22;4266;48.816;9.154;2023-08-21T13:52:21;33.30;58.40
8459;DHT22;4266;48.816;9.154;2023-08-21T13:54:46;33.70;58.30
8459;DHT22;4266;48.816;9.154;2023-08-21T13:57:13;34.10;57.50
8459;DHT22;4266;48.816;9.154;2023-08-21T13:59:39;34.10;57.50
8459;DHT22;4266;48.816;9.154;2023-08-21T14:02:05;34.00;58.70
8459;DHT22;4266;48.816;9.154;2023-08-21T14:04:31;34.00;57.40
8459;DHT22;4266;48.816;9.154;2023-08-21T14:06:56;33.80;57.90
8459;DHT22;4266;48.816;9.154;2023-08-21T14:09:22;33.60;57.90
8459;DHT22;4266;48.816;9.154;2023-08-21T14:11:47;33.70;58.50
8459;DHT22;4266;48.816;9.154;2023-08-21T14:14:13;33.80;58.00
8459;DHT22;4266;48.816;9.154;2023-08-21T14:16:40;34.00;58.70
8459;DHT22;4266;48.816;9.154;2023-08-21T14:19:05;34.00;58.80
8459;DHT22;4266;48.816;9.154;2023-08-21T14:21:31;34.10;57.50
8459;DHT22;4266;48.816;9.154;2023-08-21T14:23:57;34.30;56.80
8459;DHT22;4266;48.816;9.154;2023-08-21T14:26:22;34.50;57.80
8459;DHT22;4266;48.816;9.154;2023-08-21T14:28:48;34.80;58.20
8459;DHT22;4266;48.816;9.154;2023-08-21T14:31:14;34.80;58.00
8459;DHT22;4266;48.816;9.154;2023-08-21T14:33:39;34.50;57.40
8459;DHT22;4266;48.816;9.154;2023-08-21T14:36:05;34.60;57.90
8459;DHT22;4266;48.816;9.154;2023-08-21T14:38:31;34.50;57.70
8459;DHT22;4266;48.816;9.154;2023-08-21T14:40:57;34.60;57.30
8459;DHT22;4266;48.816;9.154;2023-08-21T14:43:23;34.50;57.20
8459;DHT22;4266;48.816;9.154;2023-08-21T14:45:49;33.90;56.30
8459;DHT22;4266;48.816;9.154;2023-08-21T14:48:16;34.10;57.80
8459;DHT22;4266;48.816;9.154;2023-08-21T14:50:42;34.20;57.30
8459;DHT22;4266;48.816;9.154;2023-08-21T14:53:07;34.10;57.50
8459;DHT22;4266;48.816;9.154;2023-08-21T14:55:33;34.00;58.30
8459;DHT22;4266;48.816;9.154;2023-08-21T14:57:59;33.80;58.20
8459;DHT22;4266;48.816;9.154;2023-08-21T15:00:24;33.50;58.30
8459;DHT22;4266;48.816;9.154;2023-08-21T15:02:50;33.30;58.70
8459;DHT22;4266;48.816;9.154;2023-08-21T15:05:16;33.20;58.60
8459;DHT22;4266;48.816;9.154;2023-08-21T15:07:44;33.20;58.90
8459;DHT22;4266;48.816;9.154;2023-08-21T15:10:09;33.30;59.00
8459;DHT22;4266;48.816;9.154;2023-08-21T15:12:35;33.00;58.90
8459;DHT22;4266;48.816;9.154;2023-08-21T15:15:01;33.10;58.90
8459;DHT22;4266;48.816;9.154;2023-08-21T15:17:26;33.20;58.90
8459;DHT22;4266;48.816;9.154;2023-08-21T15:19:52;33.10;58.70
8459;DHT22;4266;48.816;9.154;2023-08-21T15:22:18;33.00;58.50
8459;DHT22;4266;48.816;9.154;2023-08-21T15:24:44;32.90;58.90
8459;DHT22;4266;48.816;9.154;2023-08-21T15:27:09;32.90;58.90
8459;DHT22;4266;48.816;9.154;2023-08-21T15:29:35;32.90;59.10
8459;DHT22;4266;48.816;9.154;2023-08-21T15:32:01;33.00;58.60
8459;DHT22;4266;48.816;9.154;2023-08-21T15:34:26;32.90;58.60
8459;DHT22;4266;48.816;9.154;2023-08-21T15:36:52;32.70;58.30
8459;DHT22;4266;48.816;9.154;2023-08-21T15:39:18;32.70;58.60
8459;DHT22;4266;48.816;9.154;2023-08-21T15:41:45;32.70;58.90
8459;DHT22;4266;48.816;9.154;2023-08-21T15:44:10;32.70;58.90
8459;DHT22;4266;48.816;9.154;2023-08-21T15:46:36;32.70;58.70
8459;DHT22;4266;48.816;9.154;2023-08-21T15:49:01;32.70;58.80
8459;DHT22;4266;48.816;9.154;2023-08-21T15:51:28;32.70;58.80
8459;DHT22;4266;48.816;9.154;2023-08-21T15:53:54;32.70;58.80
8459;DHT22;4266;48.816;9.154;2023-08-21T15:56:19;32.70;59.00